createdAt,value
2018-12-09T00:01:30.586Z,5.50
2018-12-09T00:04:05.267Z,5.23
2018-12-09T00:06:40.281Z,5.07
2018-12-09T00:09:15.141Z,4.60
2018-12-09T00:11:49.907Z,4.43
2018-12-09T00:14:24.868Z,4.30
2018-12-09T00:16:59.639Z,5.27
2018-12-09T00:19:34.552Z,4.90
2018-12-09T00:22:09.383Z,5.00
2018-12-09T00:24:44.326Z,5.03
2018-12-09T00:27:19.180Z,4.50
2018-12-09T00:29:53.991Z,4.83
2018-12-09T00:32:28.800Z,4.90
2018-12-09T00:35:04.128Z,4.67
2018-12-09T00:37:38.985Z,4.00
2018-12-09T00:40:13.896Z,4.33
2018-12-09T00:42:49.352Z,4.87
2018-12-09T00:45:24.066Z,4.83
2018-12-09T00:47:59.019Z,4.77
2018-12-09T00:50:33.829Z,5.10
2018-12-09T00:53:08.606Z,4.50
2018-12-09T00:55:43.471Z,5.20
2018-12-09T00:58:18.372Z,5.60
2018-12-09T01:00:53.104Z,5.30
2018-12-09T01:03:28.340Z,5.80
2018-12-09T01:06:03.941Z,5.93
2018-12-09T01:08:38.963Z,5.03
2018-12-09T01:11:13.730Z,5.67
2018-12-09T01:13:49.460Z,6.37
2018-12-09T01:16:24.566Z,6.57
2018-12-09T01:18:59.461Z,6.13
2018-12-09T01:21:34.490Z,4.90
2018-12-09T01:24:09.537Z,5.63
2018-12-09T01:26:44.553Z,6.13
2018-12-09T01:29:19.453Z,5.80
2018-12-09T01:31:54.569Z,6.07
2018-12-09T01:34:29.649Z,5.90
2018-12-09T01:37:04.353Z,5.73
2018-12-09T01:39:39.257Z,5.80
2018-12-09T01:42:14.032Z,5.90
2018-12-09T01:44:48.735Z,6.70
2018-12-09T01:47:23.437Z,5.60
2018-12-09T01:49:59.439Z,5.93
2018-12-09T01:52:34.256Z,5.67
2018-12-09T01:55:09.074Z,6.50
2018-12-09T01:57:44.414Z,5.40
2018-12-09T02:00:19.318Z,6.23
2018-12-09T02:02:54.195Z,5.60
2018-12-09T02:05:29.720Z,4.97
2018-12-09T02:08:04.725Z,5.27
2018-12-09T02:10:39.724Z,5.13
2018-12-09T02:13:14.695Z,5.87
2018-12-09T02:15:49.639Z,6.57
2018-12-09T02:18:24.241Z,7.33
2018-12-09T02:20:59.145Z,7.30
2018-12-09T02:23:34.744Z,8.23
2018-12-09T02:26:09.331Z,5.97
2018-12-09T02:28:44.061Z,6.17
2018-12-09T02:31:19.034Z,6.13
2018-12-09T02:33:54.001Z,6.73
2018-12-09T02:36:29.284Z,5.40
2018-12-09T02:39:06.041Z,5.83
2018-12-09T02:41:40.809Z,4.17
2018-12-09T02:44:15.698Z,4.10
2018-12-09T02:46:50.474Z,4.20
2018-12-09T02:49:25.277Z,3.70
2018-12-09T02:52:00.527Z,3.87
2018-12-09T02:54:35.260Z,5.10
2018-12-09T02:57:10.337Z,6.37
2018-12-09T02:59:45.179Z,6.90
2018-12-09T03:02:20.447Z,6.10
2018-12-09T03:04:55.450Z,6.93
2018-12-09T03:07:30.207Z,6.83
2018-12-09T03:10:06.655Z,7.07
2018-12-09T03:12:41.726Z,6.93
2018-12-09T03:15:16.853Z,5.80
2018-12-09T03:17:51.604Z,5.90
2018-12-09T03:20:26.451Z,5.60
2018-12-09T03:23:01.250Z,6.43
2018-12-09T03:25:36.034Z,5.97
2018-12-09T03:28:11.101Z,5.90
2018-12-09T03:30:46.151Z,4.43
2018-12-09T03:33:20.890Z,4.60
2018-12-09T03:35:55.996Z,3.73
2018-12-09T03:38:31.340Z,3.60
2018-12-09T03:41:06.956Z,3.53
2018-12-09T03:43:41.770Z,2.73
2018-12-09T03:46:16.503Z,3.10
2018-12-09T03:48:51.715Z,3.20
2018-12-09T03:51:26.995Z,3.00
2018-12-09T03:54:01.645Z,3.30
2018-12-09T03:56:36.478Z,2.70
2018-12-09T03:59:11.154Z,2.57
2018-12-09T04:01:46.084Z,2.23
2018-12-09T04:04:20.818Z,2.33
2018-12-09T04:06:55.576Z,3.27
2018-12-09T04:09:30.506Z,2.77
2018-12-09T04:12:05.335Z,2.67
2018-12-09T04:14:39.971Z,1.90
2018-12-09T04:17:14.834Z,3.07
2018-12-09T04:19:49.623Z,2.70
2018-12-09T04:22:24.515Z,3.33
2018-12-09T04:24:59.851Z,3.47
2018-12-09T04:27:34.599Z,3.10
2018-12-09T04:30:09.822Z,3.80
2018-12-09T04:32:44.686Z,3.10
2018-12-09T04:35:19.624Z,3.90
2018-12-09T04:37:54.737Z,3.90
2018-12-09T04:40:29.585Z,4.63
2018-12-09T04:43:11.096Z,4.60
2018-12-09T04:45:45.757Z,5.20
2018-12-09T04:48:20.802Z,5.30
2018-12-09T04:50:56.105Z,4.60
2018-12-09T04:53:31.075Z,5.40
2018-12-09T04:56:05.845Z,4.70
2018-12-09T04:58:56.461Z,4.17
2018-12-09T05:01:31.471Z,4.30
2018-12-09T05:04:06.818Z,3.87
2018-12-09T05:06:41.977Z,4.43
2018-12-09T05:09:16.799Z,4.77
2018-12-09T05:11:51.488Z,4.43
2018-12-09T05:14:26.300Z,3.90
2018-12-09T05:17:01.186Z,4.13
2018-12-09T05:19:36.168Z,4.50
2018-12-09T05:22:11.135Z,3.73
2018-12-09T05:24:45.965Z,3.80
2018-12-09T05:27:20.927Z,4.10
2018-12-09T05:29:55.920Z,4.13
2018-12-09T05:32:30.860Z,3.80
2018-12-09T05:35:07.064Z,4.13
2018-12-09T05:37:42.183Z,3.90
2018-12-09T05:40:17.052Z,4.20
2018-12-09T05:42:52.210Z,3.50
2018-12-09T05:45:27.101Z,4.07
2018-12-09T05:48:01.852Z,5.03
2018-12-09T05:50:36.695Z,5.13
2018-12-09T05:53:11.805Z,3.60
2018-12-09T05:55:46.404Z,4.27
2018-12-09T05:58:25.297Z,4.50
2018-12-09T06:01:00.648Z,5.17
2018-12-09T06:03:35.293Z,4.97
2018-12-09T06:06:10.172Z,5.60
2018-12-09T06:08:45.279Z,5.10
2018-12-09T06:11:20.464Z,5.03
2018-12-09T06:13:55.643Z,5.10
2018-12-09T06:16:30.595Z,5.50
2018-12-09T06:19:05.387Z,5.20
2018-12-09T06:21:40.247Z,5.90
2018-12-09T06:24:15.015Z,6.83
2018-12-09T06:26:49.619Z,5.90
2018-12-09T06:29:24.325Z,6.87
2018-12-09T06:31:59.528Z,7.17
2018-12-09T06:34:34.619Z,8.27
2018-12-09T06:37:09.596Z,7.13
2018-12-09T06:39:44.532Z,7.80
2018-12-09T06:42:19.349Z,6.50
2018-12-09T06:44:54.989Z,6.73
2018-12-09T06:47:29.874Z,7.20
2018-12-09T06:50:07.292Z,7.40
2018-12-09T06:52:42.155Z,6.80
2018-12-09T06:55:16.880Z,7.30
2018-12-09T06:57:52.086Z,5.77
2018-12-09T07:00:27.083Z,5.50
2018-12-09T07:03:02.297Z,5.90
2018-12-09T07:05:37.348Z,6.50
2018-12-09T07:08:12.884Z,5.83
2018-12-09T07:10:48.423Z,5.67
2018-12-09T07:13:23.364Z,6.37
2018-12-09T07:15:58.163Z,6.60
2018-12-09T07:18:33.044Z,6.43
2018-12-09T07:21:08.059Z,5.00
2018-12-09T07:23:43.243Z,5.33
2018-12-09T07:26:18.074Z,5.27
2018-12-09T07:28:53.980Z,4.90
2018-12-09T07:31:28.641Z,4.50
2018-12-09T07:34:04.077Z,4.97
2018-12-09T07:36:39.784Z,4.57
2018-12-09T07:39:14.804Z,5.10
2018-12-09T07:41:49.470Z,6.67
2018-12-09T07:44:24.496Z,4.83
2018-12-09T07:46:59.597Z,4.80
2018-12-09T07:49:34.849Z,5.13
2018-12-09T07:52:09.764Z,4.83
2018-12-09T07:54:44.617Z,4.33
2018-12-09T07:57:19.588Z,5.17
2018-12-09T07:59:54.589Z,4.50
2018-12-09T08:02:29.409Z,5.37
2018-12-09T08:05:05.219Z,4.40
2018-12-09T08:07:39.973Z,4.67
2018-12-09T08:10:14.747Z,4.70
2018-12-09T08:12:49.578Z,5.10
2018-12-09T08:15:24.312Z,4.70
2018-12-09T08:17:59.138Z,4.47
2018-12-09T08:20:33.848Z,5.30
2018-12-09T08:23:08.888Z,4.33
2018-12-09T08:25:43.842Z,4.60
2018-12-09T08:28:18.960Z,6.30
2018-12-09T08:30:53.771Z,5.50
2018-12-09T08:33:28.924Z,4.20
2018-12-09T08:36:04.167Z,4.93
2018-12-09T08:38:39.035Z,5.13
2018-12-09T08:41:14.193Z,4.40
2018-12-09T08:43:49.169Z,4.63
2018-12-09T08:46:24.257Z,4.60
2018-12-09T08:48:58.909Z,4.47
2018-12-09T08:51:33.760Z,4.50
2018-12-09T08:54:08.767Z,4.60
2018-12-09T08:56:43.606Z,5.20
2018-12-09T08:59:18.431Z,4.77
2018-12-09T09:01:53.614Z,4.23
2018-12-09T09:04:28.710Z,4.97
2018-12-09T09:07:03.517Z,4.40
2018-12-09T09:09:38.490Z,4.37
2018-12-09T09:12:13.329Z,5.23
2018-12-09T09:14:48.093Z,4.37
2018-12-09T09:17:23.007Z,4.40
2018-12-09T09:19:57.735Z,4.73
2018-12-09T09:22:32.943Z,4.30
2018-12-09T09:25:08.086Z,4.30
2018-12-09T09:27:43.004Z,4.00
2018-12-09T09:30:18.438Z,4.00
2018-12-09T09:32:53.263Z,4.07
2018-12-09T09:35:28.202Z,4.60
2018-12-09T09:38:03.387Z,4.23
2018-12-09T09:40:38.384Z,3.93
2018-12-09T09:43:13.281Z,3.87
2018-12-09T09:45:48.263Z,3.47
2018-12-09T09:48:23.153Z,3.60
2018-12-09T09:50:58.278Z,4.20
2018-12-09T09:53:33.281Z,3.97
2018-12-09T09:56:09.353Z,4.30
2018-12-09T09:58:44.251Z,4.40
2018-12-09T10:01:19.488Z,4.83
2018-12-09T10:03:55.108Z,4.70
2018-12-09T10:06:30.489Z,4.50
2018-12-09T10:09:07.020Z,4.70
2018-12-09T10:11:42.538Z,4.70
2018-12-09T10:14:17.569Z,4.90
2018-12-09T10:16:52.621Z,5.10
2018-12-09T10:19:27.814Z,5.90
2018-12-09T10:22:02.742Z,5.47
2018-12-09T10:24:37.633Z,5.40
2018-12-09T10:27:12.904Z,5.07
2018-12-09T10:29:47.848Z,6.70
2018-12-09T10:32:22.753Z,6.40
2018-12-09T10:34:57.580Z,5.60
2018-12-09T10:37:33.065Z,5.93
2018-12-09T10:40:08.696Z,5.93
2018-12-09T10:42:43.580Z,6.77
2018-12-09T10:45:18.694Z,6.07
2018-12-09T10:47:53.352Z,6.60
2018-12-09T10:50:28.466Z,6.07
2018-12-09T10:53:03.454Z,6.40
2018-12-09T10:55:38.388Z,7.90
2018-12-09T10:58:13.635Z,5.70
2018-12-09T11:00:56.653Z,5.83
2018-12-09T11:03:31.680Z,5.93
2018-12-09T11:06:07.169Z,5.80
2018-12-09T11:08:42.356Z,5.10
2018-12-09T11:11:17.811Z,5.30
2018-12-09T11:13:57.974Z,4.80
2018-12-09T11:16:29.712Z,5.30
2018-12-09T11:19:05.348Z,5.43
2018-12-09T11:21:40.224Z,5.70
2018-12-09T11:24:15.204Z,4.97
2018-12-09T11:26:50.244Z,4.70
2018-12-09T11:29:25.193Z,4.13
2018-12-09T11:32:00.468Z,4.30
2018-12-09T11:34:35.239Z,5.07
2018-12-09T11:37:10.206Z,4.37
2018-12-09T11:39:45.205Z,4.00
2018-12-09T11:42:20.278Z,4.37
2018-12-09T11:44:55.411Z,4.30
2018-12-09T11:47:30.862Z,4.40
2018-12-09T11:50:06.153Z,3.30
2018-12-09T11:52:42.208Z,2.03
2018-12-09T11:55:17.078Z,2.00
2018-12-09T11:57:52.121Z,2.37
2018-12-09T12:00:21.730Z,2.00
2018-12-09T12:02:51.407Z,2.13
2018-12-09T12:05:21.289Z,1.80
2018-12-09T12:07:50.714Z,4.27
2018-12-09T12:10:20.586Z,2.13
2018-12-09T12:12:50.101Z,1.70
2018-12-09T12:15:19.671Z,1.80
2018-12-09T12:17:49.256Z,2.57
2018-12-09T12:20:18.513Z,1.80
2018-12-09T12:22:47.855Z,2.40
2018-12-09T12:25:17.598Z,2.27
2018-12-09T12:27:47.056Z,2.40
2018-12-09T12:30:16.700Z,2.20
2018-12-09T12:32:46.950Z,2.00
2018-12-09T12:35:16.492Z,1.93
2018-12-09T12:37:45.831Z,2.10
2018-12-09T12:40:15.296Z,2.10
2018-12-09T12:42:45.091Z,2.33
2018-12-09T12:45:14.355Z,2.33
2018-12-09T12:47:44.295Z,2.03
2018-12-09T12:50:13.736Z,3.00
2018-12-09T12:52:43.716Z,2.60
2018-12-09T12:55:17.540Z,2.87
2018-12-09T12:57:46.876Z,2.50
2018-12-09T13:00:17.799Z,3.03
2018-12-09T13:02:47.248Z,2.70
2018-12-09T13:05:16.656Z,2.70
2018-12-09T13:07:46.215Z,2.23
2018-12-09T13:10:19.859Z,2.67
2018-12-09T13:12:50.057Z,2.90
2018-12-09T13:15:19.497Z,2.40
2018-12-09T13:17:49.018Z,2.73
2018-12-09T13:20:18.470Z,2.50
2018-12-09T13:22:48.269Z,2.43
2018-12-09T13:25:17.809Z,2.67
2018-12-09T13:27:47.272Z,2.27
2018-12-09T13:30:16.529Z,2.70
2018-12-09T13:32:46.072Z,2.90
2018-12-09T13:35:15.431Z,2.13
2018-12-09T13:37:45.026Z,2.67
2018-12-09T13:40:14.221Z,2.60
2018-12-09T13:42:43.641Z,2.40
2018-12-09T13:45:13.375Z,2.70
2018-12-09T13:47:44.295Z,2.67
2018-12-09T13:50:14.040Z,3.03
2018-12-09T13:52:43.383Z,2.80
2018-12-09T13:55:12.940Z,2.80
2018-12-09T13:57:48.219Z,2.53
2018-12-09T14:00:22.970Z,2.90
2018-12-09T14:02:59.665Z,2.80
2018-12-09T14:05:35.168Z,3.00
2018-12-09T14:08:10.298Z,2.60
2018-12-09T14:10:45.184Z,2.70
2018-12-09T14:13:20.402Z,2.80
2018-12-09T14:15:55.392Z,3.10
2018-12-09T14:18:30.604Z,2.67
2018-12-09T14:21:05.482Z,2.57
2018-12-09T14:23:40.445Z,2.90
2018-12-09T14:26:15.254Z,2.73
2018-12-09T14:28:51.378Z,3.43
2018-12-09T14:31:28.119Z,2.73
2018-12-09T14:34:02.995Z,2.60
2018-12-09T14:36:38.126Z,2.70
2018-12-09T14:39:12.910Z,2.60
2018-12-09T14:41:47.951Z,3.00
2018-12-09T14:44:22.708Z,3.07
2018-12-09T14:46:57.686Z,3.60
2018-12-09T14:49:32.515Z,2.93
2018-12-09T14:52:07.426Z,2.73
2018-12-09T14:54:42.877Z,3.40
2018-12-09T14:57:18.075Z,2.73
2018-12-09T14:59:53.239Z,3.40
2018-12-09T15:02:27.982Z,3.30
2018-12-09T15:05:02.910Z,3.17
2018-12-09T15:07:38.351Z,3.00
2018-12-09T15:10:14.106Z,2.80
2018-12-09T15:12:48.588Z,2.83
2018-12-09T15:15:23.607Z,2.50
2018-12-09T15:17:58.540Z,2.70
2018-12-09T15:20:33.304Z,2.53
2018-12-09T15:23:08.338Z,2.83
2018-12-09T15:25:43.370Z,2.90
2018-12-09T15:28:18.551Z,3.23
2018-12-09T15:30:53.965Z,2.70
2018-12-09T15:33:29.112Z,2.80
2018-12-09T15:36:03.924Z,2.50
2018-12-09T15:38:39.053Z,2.90
2018-12-09T15:41:13.869Z,2.90
2018-12-09T15:43:49.223Z,3.00
2018-12-09T15:46:24.212Z,2.90
2018-12-09T15:48:59.178Z,2.60
2018-12-09T15:51:34.577Z,3.10
2018-12-09T15:54:09.416Z,3.20
2018-12-09T15:56:44.452Z,3.20
2018-12-09T15:59:20.825Z,2.77
2018-12-09T16:01:56.634Z,2.90
2018-12-09T16:04:32.108Z,2.47
2018-12-09T16:07:07.329Z,2.30
2018-12-09T16:09:42.313Z,2.40
2018-12-09T16:12:17.312Z,2.73
2018-12-09T16:14:52.057Z,2.60
2018-12-09T16:17:27.756Z,2.23
2018-12-09T16:20:02.837Z,2.70
2018-12-09T16:22:37.871Z,2.40
2018-12-09T16:25:13.050Z,2.63
2018-12-09T16:27:48.656Z,2.80
2018-12-09T16:30:23.724Z,3.60
2018-12-09T16:32:58.747Z,2.50
2018-12-09T16:35:33.953Z,2.97
2018-12-09T16:38:09.370Z,3.20
2018-12-09T16:40:44.194Z,2.73
2018-12-09T16:43:19.135Z,2.60
2018-12-09T16:45:54.047Z,3.50
2018-12-09T16:48:29.156Z,3.27
2018-12-09T16:51:04.205Z,3.17
2018-12-09T16:53:38.947Z,3.30
2018-12-09T16:56:13.814Z,2.80
2018-12-09T16:58:49.016Z,3.43
2018-12-09T17:01:23.988Z,3.40
2018-12-09T17:03:58.865Z,2.57
2018-12-09T17:06:33.944Z,3.00
2018-12-09T17:09:10.907Z,3.20
2018-12-09T17:11:46.449Z,2.90
2018-12-09T17:14:21.494Z,3.40
2018-12-09T17:16:56.497Z,3.93
2018-12-09T17:19:31.678Z,3.87
2018-12-09T17:22:06.849Z,3.73
2018-12-09T17:24:41.905Z,3.20
2018-12-09T17:27:11.185Z,2.90
2018-12-09T17:29:46.287Z,3.40
2018-12-09T17:32:21.312Z,3.70
2018-12-09T17:34:56.560Z,3.33
2018-12-09T17:40:24.751Z,2.80
2018-12-09T17:42:59.898Z,3.07
2018-12-09T17:45:35.239Z,3.23
2018-12-09T17:48:10.269Z,3.30
2018-12-09T17:50:45.192Z,3.50
2018-12-09T17:53:20.749Z,3.93
2018-12-09T17:55:55.909Z,4.93
2018-12-09T17:58:30.801Z,2.90
2018-12-09T18:01:07.997Z,4.67
2018-12-09T18:03:42.986Z,3.00
2018-12-09T18:06:17.622Z,3.30
2018-12-09T18:08:47.166Z,3.40
2018-12-09T18:11:22.969Z,3.53
2018-12-09T18:13:58.275Z,3.40
2018-12-09T18:16:33.744Z,3.53
2018-12-09T18:19:08.684Z,3.27
2018-12-09T18:21:43.787Z,3.93
2018-12-09T18:24:18.918Z,4.00
2018-12-09T18:26:53.765Z,3.27
2018-12-09T18:29:30.568Z,3.20
2018-12-09T18:32:06.239Z,2.70
2018-12-09T18:34:42.101Z,2.87
2018-12-09T18:37:17.738Z,2.90
2018-12-09T18:39:53.810Z,3.20
2018-12-09T18:42:28.858Z,2.20
2018-12-09T18:45:04.478Z,2.50
2018-12-09T18:47:39.846Z,2.50
2018-12-09T18:50:14.799Z,3.10
2018-12-09T18:52:50.241Z,2.97
2018-12-09T18:55:25.288Z,3.00
2018-12-09T18:58:00.317Z,2.83
2018-12-09T19:00:35.286Z,2.87
2018-12-09T19:03:11.305Z,3.23
2018-12-09T19:05:45.928Z,2.87
2018-12-09T19:08:21.374Z,3.33
2018-12-09T19:10:57.980Z,3.10
2018-12-09T19:13:32.898Z,4.03
2018-12-09T19:16:07.999Z,3.97
2018-12-09T19:18:42.836Z,3.20
2018-12-09T19:21:17.811Z,3.27
2018-12-09T19:23:50.598Z,3.33
2018-12-09T19:26:25.581Z,3.43
2018-12-09T19:29:00.936Z,3.43
2018-12-09T19:31:36.047Z,3.63
2018-12-09T19:34:11.059Z,3.67
2018-12-09T19:36:46.107Z,3.23
2018-12-09T19:39:21.426Z,3.07
2018-12-09T19:41:56.489Z,3.33
2018-12-09T19:44:29.596Z,3.40
2018-12-09T19:47:04.582Z,3.50
2018-12-09T19:49:39.452Z,4.03
2018-12-09T19:52:14.536Z,3.80
2018-12-09T19:54:49.632Z,4.00
2018-12-09T19:57:24.598Z,3.47
2018-12-09T19:59:59.551Z,4.30
2018-12-09T20:02:34.491Z,3.93
2018-12-09T20:05:10.065Z,3.40
2018-12-09T20:07:44.917Z,3.70
2018-12-09T20:10:19.648Z,4.57
2018-12-09T20:12:54.847Z,4.00
2018-12-09T20:15:30.023Z,3.70
2018-12-09T20:18:05.515Z,4.00
2018-12-09T20:20:40.683Z,3.70
2018-12-09T20:23:15.537Z,3.13
2018-12-09T20:25:50.729Z,4.93
2018-12-09T20:28:25.698Z,4.13
2018-12-09T20:31:01.031Z,3.83
2018-12-09T20:33:35.915Z,3.67
2018-12-09T20:36:11.934Z,3.63
2018-12-09T20:38:46.777Z,3.60
2018-12-09T20:41:22.130Z,4.20
2018-12-09T20:43:57.074Z,4.17
2018-12-09T20:46:32.291Z,4.30
2018-12-09T20:49:07.585Z,3.43
2018-12-09T20:51:42.475Z,3.30
2018-12-09T20:54:18.125Z,3.40
2018-12-09T20:56:52.955Z,3.93
2018-12-09T20:59:27.959Z,3.67
2018-12-09T21:02:03.526Z,3.80
2018-12-09T21:04:38.553Z,3.57
2018-12-09T21:07:13.728Z,3.23
2018-12-09T21:09:48.955Z,3.50
2018-12-09T21:12:23.913Z,3.70
2018-12-09T21:14:59.066Z,3.67
2018-12-09T21:17:34.088Z,2.80
2018-12-09T21:20:10.152Z,3.93
2018-12-09T21:22:45.065Z,3.80
2018-12-09T21:25:19.922Z,4.27
2018-12-09T21:27:55.097Z,3.90
2018-12-09T21:30:30.017Z,3.57
2018-12-09T21:33:05.076Z,3.50
2018-12-09T21:35:40.129Z,3.63
2018-12-09T21:38:14.961Z,4.27
2018-12-09T21:40:50.022Z,4.47
2018-12-09T21:43:25.145Z,3.77
2018-12-09T21:45:59.988Z,3.70
2018-12-09T21:48:34.873Z,3.63
2018-12-09T21:51:10.088Z,3.77
2018-12-09T21:53:45.193Z,4.63
2018-12-09T21:56:19.914Z,3.80
2018-12-09T21:58:55.556Z,3.60
2018-12-09T22:01:31.029Z,4.77
2018-12-09T22:04:06.054Z,3.90
2018-12-09T22:06:35.514Z,4.23
2018-12-09T22:09:10.782Z,3.70
2018-12-09T22:11:45.866Z,3.87
2018-12-09T22:14:20.805Z,4.00
2018-12-09T22:16:55.926Z,3.80
2018-12-09T22:19:30.917Z,4.20
2018-12-09T22:22:06.689Z,4.40
2018-12-09T22:24:41.643Z,4.00
2018-12-09T22:27:16.698Z,4.33
2018-12-09T22:29:51.315Z,4.97
2018-12-09T22:32:26.372Z,5.17
2018-12-09T22:35:01.211Z,4.40
2018-12-09T22:37:36.179Z,4.40
2018-12-09T22:40:11.525Z,4.27
2018-12-09T22:42:46.463Z,4.47
2018-12-09T22:45:21.309Z,4.00
2018-12-09T22:47:57.015Z,3.27
2018-12-09T22:50:32.211Z,4.10
2018-12-09T22:53:07.100Z,3.63
2018-12-09T22:55:41.929Z,4.00
2018-12-09T22:58:17.097Z,3.67
2018-12-09T23:00:57.996Z,3.10
2018-12-09T23:03:32.905Z,3.40
2018-12-09T23:06:07.628Z,3.97
2018-12-09T23:08:42.632Z,4.50
2018-12-09T23:11:18.081Z,3.77
2018-12-09T23:13:53.047Z,3.80
2018-12-09T23:16:27.869Z,3.33
2018-12-09T23:19:02.535Z,3.87
2018-12-09T23:21:37.457Z,3.53
2018-12-09T23:24:12.678Z,3.90
2018-12-09T23:26:47.477Z,3.40
2018-12-09T23:29:22.321Z,4.43
2018-12-09T23:31:57.328Z,3.87
2018-12-09T23:34:32.221Z,3.90
2018-12-09T23:37:07.048Z,3.77
2018-12-09T23:39:41.942Z,3.30
2018-12-09T23:42:17.703Z,3.60
2018-12-09T23:44:52.838Z,3.33
2018-12-09T23:47:27.720Z,3.13
2018-12-09T23:50:02.867Z,4.17
2018-12-09T23:52:37.573Z,3.43
2018-12-09T23:55:07.114Z,4.43
2018-12-09T23:57:41.909Z,3.50
